Time;durP1;ratioP1;P1;durP2;ratioP2;P2;SDS_P1;SDS_P2;PMS_P1;PMS_P2;Temp;Humidity;BMP_temperature;BMP_pressure;BME280_temperature;BME280_humidity;BME280_pressure;Samples;Min_cycle;Max_cycle;Signal;HPM_P1;HPM_P2
2020/12/16 00:00:11;;;;;;;18.10;12.17;;;;;;;3.41;84.81;100068.75;1791544;80;25687;-68
2020/12/16 00:02:40;;;;;;;21.00;15.33;;;;;;;3.43;84.62;100069.53;1791166;80;25284;-68
2020/12/16 00:05:10;;;;;;;18.47;12.70;;;;;;;3.43;84.65;100073.43;1791450;80;25221;-68
2020/12/16 00:07:37;;;;;;;17.83;11.63;;;;;;;3.43;84.69;100069.53;1791499;80;25280;-68
2020/12/16 00:10:08;;;;;;;16.37;12.00;;;;;;;3.45;84.68;100063.80;1791520;80;25224;-68
2020/12/16 00:12:43;;;;;;;16.30;10.83;;;;;;;3.47;84.81;100065.88;1889288;76;27461;-68
2020/12/16 00:15:09;;;;;;;15.83;10.40;;;;;;;3.44;84.94;100068.63;1860261;77;25245;-69
2020/12/16 00:17:36;;;;;;;16.60;10.43;;;;;;;3.45;84.99;100065.97;1860001;77;25292;-68
2020/12/16 00:20:06;;;;;;;15.50;10.90;;;;;;;3.47;85.01;100066.75;1860063;76;25631;-68
2020/12/16 00:22:40;;;;;;;15.77;10.70;;;;;;;3.51;84.97;100069.59;1860107;76;25597;-68
2020/12/16 00:25:09;;;;;;;16.43;10.60;;;;;;;3.51;84.93;100072.20;1860006;77;25257;-68
2020/12/16 00:27:36;;;;;;;16.23;10.53;;;;;;;3.52;84.97;100072.60;1860110;77;25260;-68
2020/12/16 00:30:06;;;;;;;14.23;9.53;;;;;;;3.55;84.96;100076.81;1860089;77;25193;-68
2020/12/16 00:32:37;;;;;;;15.73;10.77;;;;;;;3.57;84.84;100083.25;1859602;76;25194;-68
2020/12/16 00:35:05;;;;;;;14.70;10.37;;;;;;;3.55;84.79;100083.31;1859442;77;25198;-68
2020/12/16 00:37:38;;;;;;;13.50;9.80;;;;;;;3.55;84.69;100086.38;1860001;77;25185;-68
2020/12/16 00:40:06;;;;;;;13.73;10.10;;;;;;;3.52;84.77;100086.07;1859288;77;25743;-68
2020/12/16 00:42:33;;;;;;;15.27;10.97;;;;;;;3.52;84.78;100080.87;1860030;76;25681;-68
2020/12/16 00:45:00;;;;;;;15.07;9.80;;;;;;;3.54;84.85;100089.45;1860011;77;25206;-68
2020/12/16 00:47:27;;;;;;;13.57;9.93;;;;;;;3.52;84.92;100097.77;1860092;77;25146;-68
2020/12/16 00:49:54;;;;;;;12.63;9.40;;;;;;;3.53;85.08;100106.78;1825235;77;25789;-68
2020/12/16 00:52:20;;;;;;;13.80;9.47;;;;;;;3.52;85.16;100102.51;1786286;80;25272;-67
2020/12/16 00:54:47;;;;;;;13.77;9.87;;;;;;;3.52;85.23;100107.72;1786370;80;25265;-68
2020/12/16 00:57:14;;;;;;;13.63;9.93;;;;;;;3.58;85.46;100112.27;1786285;80;25297;-68
2020/12/16 00:59:41;;;;;;;13.70;10.57;;;;;;;3.59;85.23;100113.98;1786379;80;25205;-69
2020/12/16 01:02:08;;;;;;;14.40;10.07;;;;;;;3.59;85.16;100123.91;1786384;80;25268;-68
2020/12/16 01:04:35;;;;;;;13.23;9.43;;;;;;;3.61;84.94;100122.09;1805211;78;25706;-70
2020/12/16 01:07:02;;;;;;;13.13;9.17;;;;;;;3.61;84.80;100123.86;1786447;80;25221;-68
2020/12/16 01:09:29;;;;;;;14.70;10.30;;;;;;;3.61;84.84;100117.35;1786158;80;25139;-68
2020/12/16 01:11:56;;;;;;;14.77;10.20;;;;;;;3.62;84.89;100121.63;1786369;80;25380;-68
2020/12/16 01:14:23;;;;;;;13.90;9.83;;;;;;;3.60;84.90;100120.39;1776210;79;25215;-68
2020/12/16 01:16:51;;;;;;;13.30;8.80;;;;;;;3.60;85.08;100121.69;1786406;80;25080;-68
2020/12/16 01:19:19;;;;;;;14.07;9.07;;;;;;;3.61;85.12;100119.95;1786340;80;25375;-68
2020/12/16 01:21:47;;;;;;;14.00;9.53;;;;;;;3.61;85.26;100127.30;1786255;80;25281;-68
2020/12/16 01:24:14;;;;;;;13.83;9.57;;;;;;;3.61;85.28;100125.99;1785757;80;25602;-68
2020/12/16 01:29:23;;;;;;;14.90;9.80;;;;;;;3.71;85.43;100124.70;1849912;76;26874;-68
2020/12/16 01:31:51;;;;;;;12.30;8.93;;;;;;;3.63;85.44;100122.03;1819792;77;25244;-67
2020/12/16 01:34:19;;;;;;;13.50;9.47;;;;;;;3.61;85.43;100118.66;1818340;78;25271;-68
2020/12/16 01:36:48;;;;;;;11.93;9.70;;;;;;;3.61;85.35;100114.75;1819488;77;25297;-68
2020/12/16 01:39:16;;;;;;;14.43;9.17;;;;;;;3.62;85.32;100114.69;1819909;78;25334;-68
2020/12/16 01:41:48;;;;;;;12.07;8.63;;;;;;;3.61;85.32;100116.89;1819763;77;25610;-68
2020/12/16 01:44:18;;;;;;;12.47;8.53;;;;;;;3.59;85.33;100116.11;1819739;77;25168;-69
2020/12/16 01:46:54;;;;;;;14.50;10.00;;;;;;;3.58;85.45;100120.08;1819745;77;25379;-67
2020/12/16 01:49:23;;;;;;;13.60;9.30;;;;;;;3.59;85.55;100130.88;1819722;77;25836;-67
2020/12/16 01:51:54;;;;;;;14.73;9.80;;;;;;;3.57;85.58;100133.55;1791082;78;25735;-68
2020/12/16 01:54:22;;;;;;;16.60;11.93;;;;;;;3.58;85.66;100133.91;1787539;80;25175;-69
2020/12/16 01:56:56;;;;;;;15.27;10.03;;;;;;;3.58;85.66;100141.72;1787377;80;25332;-67
2020/12/16 01:59:39;;;;;;;17.47;11.57;;;;;;;3.63;85.68;100144.98;1849796;76;26840;-68
2020/12/16 02:02:08;;;;;;;14.83;10.70;;;;;;;3.61;85.73;100152.00;1819711;78;25240;-68
2020/12/16 02:04:43;;;;;;;13.30;10.13;;;;;;;3.61;85.62;100149.87;1788535;77;25195;-68
2020/12/16 02:07:11;;;;;;;15.13;10.20;;;;;;;3.60;85.48;100148.16;1819663;77;25226;-67
2020/12/16 02:09:45;;;;;;;15.03;10.07;;;;;;;3.57;85.48;100158.69;1819777;77;25198;-68
2020/12/16 02:12:20;;;;;;;15.33;10.83;;;;;;;3.55;85.53;100149.64;1788154;78;25702;-68
2020/12/16 02:14:47;;;;;;;13.30;9.67;;;;;;;3.57;85.64;100152.19;1819811;77;25303;-68
2020/12/16 02:17:15;;;;;;;12.83;9.47;;;;;;;3.62;85.68;100155.45;1819747;77;25266;-69
2020/12/16 02:19:48;;;;;;;13.90;9.53;;;;;;;3.60;85.70;100152.06;1819759;77;25263;-68
2020/12/16 02:22:15;;;;;;;13.57;8.87;;;;;;;3.58;85.75;100159.92;1819807;77;25259;-70
2020/12/16 02:25:11;;;;;;;12.77;8.67;;;;;;;3.59;85.80;100164.70;1819695;77;25257;-68
2020/12/16 02:27:42;;;;;;;11.67;8.80;;;;;;;3.60;85.84;100162.00;1819010;78;25183;-68
2020/12/16 02:30:13;;;;;;;14.40;9.27;;;;;;;3.63;85.79;100157.15;1819177;77;25216;-68
2020/12/16 02:32:59;;;;;;;16.77;11.00;;;;;;;3.62;85.79;100153.71;1819654;78;25164;-68
2020/12/16 02:35:27;;;;;;;15.23;10.43;;;;;;;3.65;85.72;100148.39;1819815;77;25354;-68
2020/12/16 02:37:56;;;;;;;14.57;10.30;;;;;;;3.65;85.69;100148.39;1818188;77;25051;-68
2020/12/16 02:40:24;;;;;;;15.20;9.53;;;;;;;3.65;85.72;100153.59;1819833;77;25239;-67
2020/12/16 02:42:51;;;;;;;12.63;8.80;;;;;;;3.67;85.61;100143.96;1819755;77;25662;-67
2020/12/16 02:45:19;;;;;;;12.90;10.20;;;;;;;3.66;85.55;100147.46;1762975;78;25221;-68
2020/12/16 02:47:47;;;;;;;11.93;8.60;;;;;;;3.67;85.36;100146.56;1816789;77;25318;-68
2020/12/16 02:50:16;;;;;;;13.00;9.43;;;;;;;3.67;85.31;100155.67;1811172;78;25072;-68
2020/12/16 02:52:44;;;;;;;11.20;8.17;;;;;;;3.65;85.33;100174.84;1787184;79;25273;-68
2020/12/16 02:55:13;;;;;;;11.10;8.70;;;;;;;3.67;85.26;100170.41;1786942;80;25308;-68
2020/12/16 02:57:41;;;;;;;11.73;8.70;;;;;;;3.71;85.22;100174.13;1785369;79;25178;-68
2020/12/16 03:00:08;;;;;;;12.33;8.20;;;;;;;3.69;85.32;100175.95;1796426;78;25254;-68
2020/12/16 03:03:00;;;;;;;12.67;9.27;;;;;;;3.77;85.42;100175.66;1849778;76;27438;-67
2020/12/16 03:05:45;;;;;;;15.87;11.30;;;;;;;3.74;85.37;100173.61;1819766;77;25250;-67
2020/12/16 03:08:14;;;;;;;12.67;8.93;;;;;;;3.74;85.39;100173.18;1817899;77;25637;-67
2020/12/16 03:10:42;;;;;;;18.47;12.60;;;;;;;3.74;85.44;100174.48;1817961;77;25789;-68
2020/12/16 03:13:10;;;;;;;17.97;12.43;;;;;;;3.74;85.40;100165.38;1819637;77;25605;-68
2020/12/16 03:15:37;;;;;;;15.60;10.70;;;;;;;3.73;85.47;100162.83;1819847;78;25297;-67
2020/12/16 03:18:04;;;;;;;15.67;11.63;;;;;;;3.75;85.49;100167.52;1819698;77;25246;-67
2020/12/16 03:20:31;;;;;;;13.60;10.47;;;;;;;3.76;85.54;100171.81;1819859;78;25212;-67
2020/12/16 03:22:58;;;;;;;15.03;11.00;;;;;;;3.77;85.58;100176.96;1787821;78;25647;-67
2020/12/16 03:25:44;;;;;;;14.73;10.10;;;;;;;3.84;85.63;100179.70;1889305;76;26821;-67
2020/12/16 03:28:27;;;;;;;12.53;9.40;;;;;;;3.82;85.55;100185.42;1857864;77;25276;-67
2020/12/16 03:31:13;;;;;;;12.13;9.07;;;;;;;3.86;85.42;100186.14;1859587;77;25624;-68
2020/12/16 03:33:58;;;;;;;13.10;8.50;;;;;;;3.94;85.28;100194.92;1849797;76;26791;-68
2020/12/16 03:36:26;;;;;;;12.37;9.13;;;;;;;3.90;85.02;100186.39;1818583;77;25215;-68
2020/12/16 03:38:55;;;;;;;12.70;9.63;;;;;;;3.92;85.00;100176.76;1819611;77;25587;-68
2020/12/16 03:41:23;;;;;;;12.83;8.93;;;;;;;3.92;85.00;100192.38;1819719;78;25116;-67
2020/12/16 03:43:51;;;;;;;12.30;8.33;;;;;;;3.95;85.03;100181.84;1818218;77;25750;-68
2020/12/16 03:46:18;;;;;;;10.87;8.23;;;;;;;3.97;84.97;100178.75;1819802;77;25247;-67
2020/12/16 03:48:46;;;;;;;11.77;8.33;;;;;;;3.98;85.09;100183.02;1819676;78;25311;-68
2020/12/16 03:51:15;;;;;;;13.97;8.80;;;;;;;4.03;85.10;100191.48;1799321;78;25103;-67
2020/12/16 03:53:43;;;;;;;11.60;8.27;;;;;;;4.09;84.99;100206.86;1757250;79;25783;-67
2020/12/16 03:56:26;;;;;;;12.77;8.80;;;;;;;4.18;85.02;100206.09;1849868;76;26847;-68
2020/12/16 03:59:11;;;;;;;16.33;10.83;;;;;;;4.16;84.66;100203.55;1819939;77;25192;-68
2020/12/16 04:02:00;;;;;;;16.00;10.83;;;;;;;4.21;84.24;100209.87;1849849;75;27032;-68
2020/12/16 04:04:27;;;;;;;16.37;10.43;;;;;;;4.14;84.36;100211.88;1819891;77;25287;-68
2020/12/16 04:06:56;;;;;;;18.33;11.33;;;;;;;4.18;84.27;100205.63;1818498;77;25709;-68
2020/12/16 04:09:26;;;;;;;19.73;12.00;;;;;;;4.19;84.16;100205.16;1819712;78;25286;-67
2020/12/16 04:11:54;;;;;;;21.07;11.80;;;;;;;4.20;84.29;100208.16;1819109;77;25741;-68
2020/12/16 04:14:34;;;;;;;18.87;11.10;;;;;;;4.26;84.44;100214.42;1818347;78;26861;-67
2020/12/16 04:17:01;;;;;;;17.17;11.07;;;;;;;4.24;84.45;100215.80;1789653;79;25209;-68
2020/12/16 04:19:29;;;;;;;20.67;11.60;;;;;;;4.25;84.47;100217.47;1787831;80;25229;-68
2020/12/16 04:21:57;;;;;;;15.80;11.37;;;;;;;4.29;84.47;100218.21;1789465;79;25344;-68
2020/12/16 04:24:26;;;;;;;16.80;11.20;;;;;;;4.30;84.44;100213.37;1789498;80;25249;-67
2020/12/16 04:27:08;;;;;;;18.93;10.93;;;;;;;4.34;84.54;100213.66;1849802;76;26906;-67
2020/12/16 04:29:38;;;;;;;17.77;11.13;;;;;;;4.30;84.42;100209.47;1819925;77;25205;-68
2020/12/16 04:32:05;;;;;;;18.17;11.60;;;;;;;4.30;84.34;100209.93;1819895;77;25203;-68
2020/12/16 04:34:33;;;;;;;18.63;11.83;;;;;;;4.28;84.27;100199.58;1818944;77;25366;-68
2020/12/16 04:37:00;;;;;;;14.23;10.10;;;;;;;4.23;84.23;100201.06;1819858;77;25259;-69
2020/12/16 04:39:29;;;;;;;14.63;9.53;;;;;;;4.23;84.27;100208.04;1819809;78;25721;-68
2020/12/16 04:41:59;;;;;;;11.90;8.43;;;;;;;4.24;84.22;100209.28;1819865;78;25378;-68
2020/12/16 04:44:26;;;;;;;11.00;8.23;;;;;;;4.25;84.20;100203.61;1819751;78;25262;-68
2020/12/16 04:46:55;;;;;;;13.73;8.60;;;;;;;4.26;84.24;100207.45;1818430;77;25714;-68
2020/12/16 04:49:24;;;;;;;11.97;8.40;;;;;;;4.22;84.35;100207.20;1818501;78;25350;-70
2020/12/16 04:51:53;;;;;;;9.83;7.53;;;;;;;4.23;84.46;100208.88;1790596;78;25706;-68
2020/12/16 04:54:21;;;;;;;10.37;7.80;;;;;;;4.28;84.54;100217.80;1785826;80;25292;-67
2020/12/16 04:56:48;;;;;;;11.27;9.00;;;;;;;4.32;84.40;100218.05;1787447;79;25222;-68
2020/12/16 04:59:19;;;;;;;11.07;8.40;;;;;;;4.31;84.29;100214.20;1785904;80;25211;-68
2020/12/16 05:01:58;;;;;;;10.90;8.40;;;;;;;4.33;84.27;100216.31;1818336;78;26895;-67
2020/12/16 05:04:25;;;;;;;9.73;7.57;;;;;;;4.28;83.97;100216.50;1789469;79;25711;-67
2020/12/16 05:06:54;;;;;;;11.50;8.17;;;;;;;4.26;83.99;100216.56;1789342;80;25273;-68
2020/12/16 05:09:20;;;;;;;11.03;8.53;;;;;;;4.25;84.07;100227.05;1789350;79;25324;-68
2020/12/16 05:11:49;;;;;;;11.40;8.50;;;;;;;4.24;84.23;100230.55;1757666;80;25288;-67
2020/12/16 05:14:22;;;;;;;11.53;8.23;;;;;;;4.26;84.29;100228.28;1761190;81;25780;-67
2020/12/16 05:17:01;;;;;;;10.77;7.70;;;;;;;4.30;84.37;100226.39;1761259;81;25334;-67
2020/12/16 05:19:41;;;;;;;12.03;8.77;;;;;;;4.31;84.29;100228.09;1761216;81;25358;-67
2020/12/16 05:22:28;;;;;;;11.70;8.80;;;;;;;4.27;84.33;100222.61;1789032;80;25261;-67
2020/12/16 05:24:58;;;;;;;12.20;8.80;;;;;;;4.28;84.39;100221.25;1788815;80;25352;-67
2020/12/16 05:27:31;;;;;;;11.50;8.87;;;;;;;4.30;84.48;100220.34;1757642;80;25569;-68
2020/12/16 05:30:06;;;;;;;36.37;22.43;;;;;;;4.27;84.44;100219.58;1761299;81;25271;-67
2020/12/16 05:32:34;;;;;;;23.90;15.43;;;;;;;4.26;84.37;100223.08;1760925;81;25157;-67
2020/12/16 05:35:19;;;;;;;13.30;9.97;;;;;;;4.24;84.35;100230.11;1760985;81;25292;-67
2020/12/16 05:37:45;;;;;;;17.77;10.93;;;;;;;4.25;84.21;100230.48;1788923;79;25174;-67
2020/12/16 05:40:16;;;;;;;13.13;9.53;;;;;;;4.23;84.22;100236.69;1788951;80;25138;-68
2020/12/16 05:42:49;;;;;;;18.97;11.13;;;;;;;4.20;84.29;100237.64;1788883;79;25063;-67
2020/12/16 05:45:18;;;;;;;15.00;10.10;;;;;;;4.20;84.33;100246.75;1788826;79;25206;-67
2020/12/16 05:48:01;;;;;;;12.87;9.40;;;;;;;4.19;84.42;100246.38;1759956;80;25605;-68
2020/12/16 05:50:38;;;;;;;15.33;10.53;;;;;;;4.22;84.40;100254.51;1764745;80;25297;-67
2020/12/16 05:53:20;;;;;;;19.83;12.50;;;;;;;4.21;84.45;100259.34;1760821;81;25290;-68
2020/12/16 05:55:59;;;;;;;39.93;25.97;;;;;;;4.25;84.48;100264.80;1761103;81;25628;-67
2020/12/16 05:58:30;;;;;;;308.53;154.97;;;;;;;4.32;84.53;100274.51;1760127;81;25326;-68
2020/12/16 06:01:04;;;;;;;63.23;33.23;;;;;;;4.40;84.38;100273.27;1788375;79;25221;-68
2020/12/16 06:03:38;;;;;;;23.13;14.37;;;;;;;4.41;84.22;100280.66;1788880;80;25855;-67
2020/12/16 06:06:10;;;;;;;29.83;15.90;;;;;;;4.48;83.67;100273.43;1788859;79;25288;-67
2020/12/16 06:08:41;;;;;;;15.90;11.67;;;;;;;4.44;83.81;100274.86;1788905;80;25307;-68
2020/12/16 06:11:11;;;;;;;15.87;11.03;;;;;;;4.48;83.61;100270.83;1788931;79;25229;-68
2020/12/16 06:13:38;;;;;;;16.57;12.30;;;;;;;4.48;83.24;100287.76;1788116;80;25221;-68
2020/12/16 06:16:07;;;;;;;16.80;12.57;;;;;;;4.45;82.99;100280.91;1788266;80;25783;-69
2020/12/16 06:18:37;;;;;;;15.20;11.43;;;;;;;4.41;83.36;100282.80;1787819;79;25327;-68
2020/12/16 06:21:06;;;;;;;16.53;12.37;;;;;;;4.39;83.29;100283.32;1788308;79;25380;-68
2020/12/16 06:23:40;;;;;;;21.23;13.87;;;;;;;4.38;83.37;100286.83;1788393;80;25351;-67
2020/12/16 06:26:14;;;;;;;19.00;13.47;;;;;;;4.35;83.59;100291.31;1788279;79;25257;-67
2020/12/16 06:28:41;;;;;;;18.50;12.70;;;;;;;4.36;83.73;100289.95;1788412;80;25233;-68
2020/12/16 06:31:30;;;;;;;16.30;12.13;;;;;;;4.38;83.74;100292.03;1788269;80;25209;-68
2020/12/16 06:34:06;;;;;;;19.33;13.10;;;;;;;4.38;83.83;100285.52;1788220;79;25135;-67
2020/12/16 06:36:40;;;;;;;18.83;12.90;;;;;;;4.43;83.77;100291.38;1788210;79;25716;-67
2020/12/16 06:39:17;;;;;;;20.83;13.57;;;;;;;4.45;83.65;100296.53;1787433;79;25712;-68
2020/12/16 06:41:55;;;;;;;20.30;13.57;;;;;;;4.44;83.57;100302.20;1788171;80;25825;-68
2020/12/16 06:44:23;;;;;;;17.40;12.70;;;;;;;4.46;83.44;100304.75;1744428;79;25226;-68
2020/12/16 06:46:52;;;;;;;37.33;16.83;;;;;;;4.46;83.02;100309.50;1788121;79;25206;-68
2020/12/16 06:49:32;;;;;;;31.13;17.83;;;;;;;4.43;83.08;100313.52;1788178;80;25676;-68
2020/12/16 06:52:04;;;;;;;21.63;15.23;;;;;;;4.43;83.34;100325.71;1788040;80;25340;-68
2020/12/16 06:54:41;;;;;;;25.57;16.23;;;;;;;4.42;83.44;100330.08;1788192;79;25764;-68
2020/12/16 06:57:25;;;;;;;34.73;22.13;;;;;;;4.45;83.55;100331.23;1788178;80;25308;-69
2020/12/16 07:00:02;;;;;;;20.27;14.23;;;;;;;4.49;83.67;100330.68;1788181;80;25239;-68
2020/12/16 07:02:36;;;;;;;25.43;16.70;;;;;;;4.52;83.61;100330.98;1791011;80;25285;-68
2020/12/16 07:05:06;;;;;;;21.27;14.20;;;;;;;4.54;83.57;100329.16;1791342;80;25728;-68
2020/12/16 07:07:49;;;;;;;29.73;17.80;;;;;;;4.56;83.59;100336.45;1761374;80;25750;-69
2020/12/16 07:10:39;;;;;;;25.27;16.33;;;;;;;4.59;83.61;100344.15;1791394;80;25221;-68
2020/12/16 07:13:25;;;;;;;22.63;13.97;;;;;;;4.64;83.74;100348.71;1791413;80;25371;-68
2020/12/16 07:16:13;;;;;;;20.03;12.00;;;;;;;4.72;83.64;100346.64;1791276;80;25269;-68
2020/12/16 07:18:48;;;;;;;25.30;16.90;;;;;;;4.79;83.43;100352.00;1791177;80;25348;-67
2020/12/16 07:21:23;;;;;;;26.87;17.10;;;;;;;4.83;83.03;100352.72;1791350;80;25066;-68
2020/12/16 07:23:57;;;;;;;31.63;19.17;;;;;;;4.86;83.16;100345.20;1791292;80;25609;-68
2020/12/16 07:26:31;;;;;;;28.60;16.67;;;;;;;4.87;83.05;100353.44;1791353;80;25214;-68
2020/12/16 07:29:00;;;;;;;38.80;20.27;;;;;;;4.89;82.89;100356.81;1791301;80;25351;-68
2020/12/16 07:31:27;;;;;;;43.57;27.17;;;;;;;4.90;83.00;100358.52;1791155;79;25232;-68
2020/12/16 07:33:54;;;;;;;57.77;33.70;;;;;;;4.92;82.97;100349.70;1764822;80;25684;-70
2020/12/16 07:36:21;;;;;;;40.30;22.80;;;;;;;4.92;83.05;100358.83;1791297;80;25320;-68
2020/12/16 07:38:54;;;;;;;45.13;24.43;;;;;;;4.94;83.04;100358.77;1791311;79;25601;-66
2020/12/16 07:41:27;;;;;;;41.87;24.83;;;;;;;4.94;82.99;100365.28;1791296;80;25309;-68
2020/12/16 07:43:59;;;;;;;42.33;25.23;;;;;;;4.93;83.01;100359.23;1791239;80;25288;-68
2020/12/16 07:46:26;;;;;;;23.40;15.00;;;;;;;4.95;83.12;100356.56;1791241;80;25209;-68
2020/12/16 07:48:53;;;;;;;25.40;17.27;;;;;;;4.97;83.08;100354.73;1791400;80;25277;-69
2020/12/16 07:51:20;;;;;;;14.20;10.33;;;;;;;4.96;83.03;100360.41;1791265;80;25635;-69
2020/12/16 07:53:50;;;;;;;16.17;11.17;;;;;;;4.95;82.99;100362.61;1791283;80;25261;-67
2020/12/16 07:56:18;;;;;;;16.63;12.90;;;;;;;4.92;82.96;100359.30;1791163;80;25705;-68
2020/12/16 07:58:45;;;;;;;18.90;14.37;;;;;;;4.88;83.00;100363.80;1791314;80;25127;-68
2020/12/16 08:01:17;;;;;;;27.20;20.27;;;;;;;4.87;83.12;100363.39;1790459;80;25140;-68
2020/12/16 08:03:44;;;;;;;24.27;18.20;;;;;;;4.88;83.25;100362.49;1788360;79;25359;-68
2020/12/16 08:06:11;;;;;;;22.87;16.73;;;;;;;4.88;83.35;100366.41;1788189;80;25628;-68
2020/12/16 08:08:46;;;;;;;20.47;15.60;;;;;;;4.87;83.51;100360.78;1788201;79;25367;-68
2020/12/16 08:11:17;;;;;;;16.40;11.23;;;;;;;4.89;83.59;100373.30;1788165;79;25728;-68
2020/12/16 08:13:44;;;;;;;19.17;13.43;;;;;;;4.89;83.67;100377.67;1788187;79;25304;-68
2020/12/16 08:16:11;;;;;;;17.53;12.33;;;;;;;4.89;83.78;100386.33;1788136;80;25704;-68
2020/12/16 08:18:44;;;;;;;20.47;15.50;;;;;;;4.88;83.88;100391.63;1788298;79;25209;-68
2020/12/16 08:21:21;;;;;;;15.97;12.50;;;;;;;4.89;84.05;100401.12;1759753;80;25238;-68
2020/12/16 08:23:53;;;;;;;17.30;13.90;;;;;;;4.85;84.02;100399.11;1788387;79;25238;-68
2020/12/16 08:26:25;;;;;;;19.30;13.77;;;;;;;4.87;84.21;100406.41;1788255;80;25479;-70
2020/12/16 08:28:51;;;;;;;20.20;14.60;;;;;;;4.89;84.25;100399.83;1788241;79;25142;-67
2020/12/16 08:31:20;;;;;;;20.50;14.33;;;;;;;4.84;84.33;100401.31;1788199;79;25360;-68
2020/12/16 08:33:49;;;;;;;17.70;13.33;;;;;;;4.86;84.50;100403.42;1788068;79;25878;-67
2020/12/16 08:36:20;;;;;;;18.43;13.73;;;;;;;4.87;84.73;100405.56;1788249;79;25657;-68
2020/12/16 08:38:49;;;;;;;18.07;13.20;;;;;;;4.92;84.86;100405.75;1788223;79;25221;-68
2020/12/16 08:41:25;;;;;;;22.13;15.70;;;;;;;4.89;84.94;100411.55;1788278;79;25378;-68
2020/12/16 08:43:52;;;;;;;22.77;17.70;;;;;;;4.91;85.18;100413.63;1759787;80;25675;-69
2020/12/16 08:46:25;;;;;;;22.20;17.53;;;;;;;4.89;85.14;100413.70;1788107;79;25646;-67
2020/12/16 08:48:59;;;;;;;20.30;15.27;;;;;;;4.91;85.27;100416.23;1788244;80;25269;-69
2020/12/16 08:51:40;;;;;;;23.63;16.10;;;;;;;4.95;85.38;100421.73;1788171;79;25704;-69
2020/12/16 08:54:16;;;;;;;20.50;15.73;;;;;;;5.00;85.49;100421.92;1788236;80;25775;-69
2020/12/16 08:56:43;;;;;;;20.47;15.13;;;;;;;5.03;85.49;100420.97;1787935;79;25316;-69
2020/12/16 08:59:25;;;;;;;19.00;14.97;;;;;;;5.06;85.60;100416.93;1788137;80;25380;-69
2020/12/16 09:02:06;;;;;;;20.33;14.87;;;;;;;5.11;85.82;100421.49;1788120;79;25254;-68
2020/12/16 09:04:35;;;;;;;20.37;14.70;;;;;;;5.14;85.76;100426.55;1788184;80;25695;-68
2020/12/16 09:07:12;;;;;;;18.63;14.07;;;;;;;5.21;85.84;100431.05;1788232;79;25317;-67
2020/12/16 09:09:47;;;;;;;20.67;15.87;;;;;;;5.21;85.76;100428.45;1788197;79;25617;-68
2020/12/16 09:12:16;;;;;;;25.80;18.10;;;;;;;5.23;86.00;100421.42;1778973;79;25732;-68
2020/12/16 09:14:59;;;;;;;25.67;19.37;;;;;;;5.22;85.83;100426.23;1788266;80;25242;-68
2020/12/16 09:17:29;;;;;;;24.63;19.70;;;;;;;5.25;85.95;100426.58;1788098;79;25142;-68
2020/12/16 09:19:56;;;;;;;25.17;19.60;;;;;;;5.27;85.98;100421.67;1788222;79;25688;-68
2020/12/16 09:22:27;;;;;;;23.73;19.70;;;;;;;5.35;85.83;100423.50;1788001;80;25280;-68
2020/12/16 09:24:58;;;;;;;29.43;22.30;;;;;;;5.31;85.82;100424.99;1743062;80;25368;-69
2020/12/16 09:27:25;;;;;;;29.87;23.27;;;;;;;5.28;85.82;100432.94;1788069;79;25222;-68
2020/12/16 09:29:52;;;;;;;28.33;22.47;;;;;;;5.31;85.97;100424.99;1788195;79;25321;-69
2020/12/16 09:32:23;;;;;;;28.40;21.13;;;;;;;5.34;85.92;100430.08;1788058;80;25051;-69
2020/12/16 09:34:52;;;;;;;28.20;22.30;;;;;;;5.33;85.93;100433.59;1759961;80;25140;-69
2020/12/16 09:37:28;;;;;;;28.07;21.33;;;;;;;5.34;86.02;100438.75;1788099;80;25276;-69
2020/12/16 09:40:10;;;;;;;34.40;28.40;;;;;;;5.35;86.06;100430.48;1788114;80;25159;-67
2020/12/16 09:42:37;;;;;;;38.40;28.73;;;;;;;5.34;86.12;100434.00;1787806;79;25143;-69
2020/12/16 09:45:15;;;;;;;32.80;24.63;;;;;;;5.41;86.12;100438.49;1788222;80;25404;-68
2020/12/16 09:47:46;;;;;;;32.97;24.90;;;;;;;5.39;85.95;100445.92;1760172;80;25368;-68
2020/12/16 09:50:13;;;;;;;31.67;25.07;;;;;;;5.40;85.70;100445.48;1788235;80;25237;-68
2020/12/16 09:52:40;;;;;;;37.07;28.60;;;;;;;5.38;85.51;100455.14;1788222;80;25067;-68
2020/12/16 09:55:20;;;;;;;33.10;24.30;;;;;;;5.39;85.64;100463.34;1788222;79;25130;-67
2020/12/16 09:58:05;;;;;;;32.27;24.57;;;;;;;5.41;85.84;100454.98;1788254;79;25289;-68
2020/12/16 10:00:34;;;;;;;51.60;45.30;;;;;;;5.42;85.91;100461.07;1788297;79;25554;-68
2020/12/16 10:03:07;;;;;;;41.83;37.00;;;;;;;5.42;85.89;100459.77;1788188;80;25693;-68
2020/12/16 10:05:35;;;;;;;33.83;29.13;;;;;;;5.42;85.93;100459.30;1788330;79;25802;-68
2020/12/16 10:08:07;;;;;;;30.67;24.80;;;;;;;5.44;86.02;100456.63;1788332;79;25754;-68
2020/12/16 10:10:33;;;;;;;45.40;38.07;;;;;;;5.48;86.11;100454.27;1787058;79;25289;-70
2020/12/16 10:13:00;;;;;;;38.40;30.17;;;;;;;5.53;86.04;100452.30;1759482;80;25170;-68
2020/12/16 10:15:28;;;;;;;33.53;24.73;;;;;;;5.62;86.12;100448.47;1788245;80;25302;-67
2020/12/16 10:17:55;;;;;;;30.97;23.33;;;;;;;5.72;86.10;100453.66;1788273;80;25304;-70
2020/12/16 10:20:22;;;;;;;39.80;27.37;;;;;;;5.79;86.02;100454.24;1788291;79;25067;-69
2020/12/16 10:22:49;;;;;;;35.37;26.40;;;;;;;5.87;85.96;100454.28;1788158;80;25067;-68
2020/12/16 10:25:16;;;;;;;41.67;31.40;;;;;;;5.91;85.76;100450.61;1788191;80;25146;-69
2020/12/16 10:27:43;;;;;;;42.07;30.20;;;;;;;5.94;85.44;100459.61;1759840;80;25669;-68
2020/12/16 10:30:09;;;;;;;44.70;37.33;;;;;;;5.96;84.90;100450.44;1759693;80;25266;-68
2020/12/16 10:32:38;;;;;;;41.97;29.83;;;;;;;5.95;85.03;100456.09;1788247;79;25704;-69
2020/12/16 10:35:05;;;;;;;64.13;43.87;;;;;;;5.97;84.99;100450.00;1788306;80;25582;-67
2020/12/16 10:37:40;;;;;;;115.57;101.97;;;;;;;5.99;84.96;100454.69;1758356;80;25741;-70
2020/12/16 10:40:04;;;;;;;41.90;32.27;;;;;;;6.03;84.87;100457.53;1787766;79;25158;-68
2020/12/16 10:42:31;;;;;;;35.30;26.27;;;;;;;6.03;84.79;100451.00;1788078;79;25736;-68
2020/12/16 10:44:58;;;;;;;30.53;22.83;;;;;;;6.04;84.89;100452.72;1788355;80;25083;-69
2020/12/16 10:47:24;;;;;;;30.93;22.17;;;;;;;6.10;84.88;100448.49;1766376;79;25196;-69
2020/12/16 10:49:51;;;;;;;28.73;21.17;;;;;;;6.14;84.59;100447.45;1757036;80;25176;-69
2020/12/16 10:52:18;;;;;;;27.93;20.87;;;;;;;6.13;84.71;100452.27;1756960;80;25105;-69
2020/12/16 10:54:44;;;;;;;30.27;22.23;;;;;;;6.16;84.44;100454.75;1757149;80;25172;-69
2020/12/16 10:57:11;;;;;;;29.57;21.67;;;;;;;6.14;84.34;100448.76;1757056;80;25723;-68
2020/12/16 10:59:38;;;;;;;32.20;23.00;;;;;;;6.11;84.38;100452.34;1756169;80;25137;-68
2020/12/16 11:02:05;;;;;;;35.67;24.57;;;;;;;6.10;84.31;100461.55;1756937;80;25164;-68
2020/12/16 11:04:32;;;;;;;68.43;40.17;;;;;;;6.08;84.44;100458.17;1756875;80;25718;-68
2020/12/16 11:06:58;;;;;;;37.93;26.83;;;;;;;6.09;84.49;100454.19;1757016;80;25173;-68
2020/12/16 11:09:25;;;;;;;39.83;27.67;;;;;;;6.10;84.63;100449.80;1756991;81;25137;-69
2020/12/16 11:11:54;;;;;;;40.00;29.50;;;;;;;6.13;84.68;100450.97;1757024;80;25144;-68
2020/12/16 11:14:21;;;;;;;46.90;32.53;;;;;;;6.16;84.64;100449.53;1756942;80;25208;-67
2020/12/16 11:16:48;;;;;;;62.13;36.90;;;;;;;6.16;84.69;100445.61;1757020;80;25335;-68
2020/12/16 11:19:16;;;;;;;51.10;33.60;;;;;;;6.18;84.71;100442.93;1757160;80;25519;-68
2020/12/16 11:21:46;;;;;;;56.07;37.87;;;;;;;6.21;84.82;100440.18;1757033;80;25164;-69
2020/12/16 11:24:15;;;;;;;82.17;51.37;;;;;;;6.21;84.83;100434.48;1757015;80;25295;-68
2020/12/16 11:26:45;;;;;;;68.43;47.30;;;;;;;6.21;84.88;100431.88;1757133;80;25279;-68
2020/12/16 11:29:12;;;;;;;48.53;35.17;;;;;;;6.23;84.95;100434.42;1757002;80;25140;-69
2020/12/16 11:31:48;;;;;;;47.57;34.30;;;;;;;6.25;84.84;100432.14;1757159;80;25356;-67
2020/12/16 11:34:20;;;;;;;42.23;30.07;;;;;;;6.25;84.77;100432.14;1757043;80;25299;-69
2020/12/16 11:36:49;;;;;;;39.70;30.33;;;;;;;6.27;84.64;100428.15;1757169;80;25097;-69
2020/12/16 11:39:16;;;;;;;36.83;27.00;;;;;;;6.30;84.56;100423.63;1757059;80;25172;-68